createdAt,value
2023-05-01T00:02:27.273Z,74.46
2023-05-01T00:04:54.342Z,74.90
2023-05-01T00:07:21.679Z,75.49
2023-05-01T00:09:48.657Z,75.18
2023-05-01T00:12:15.774Z,74.98
2023-05-01T00:14:42.697Z,74.71
2023-05-01T00:17:10.054Z,75.03
2023-05-01T00:19:37.084Z,75.63
2023-05-01T00:22:04.159Z,76.21
2023-05-01T00:24:31.041Z,76.47
2023-05-01T00:26:58.206Z,76.22
2023-05-01T00:29:25.295Z,76.31
2023-05-01T00:31:52.469Z,76.42
2023-05-01T00:34:20.049Z,76.42
2023-05-01T00:36:48.106Z,76.63
2023-05-01T00:39:16.564Z,76.56
2023-05-01T00:41:43.943Z,77.09
2023-05-01T00:44:10.933Z,77.33
2023-05-01T00:46:38.228Z,78.08
2023-05-01T00:49:05.235Z,78.15
2023-05-01T00:51:33.110Z,77.91
2023-05-01T00:54:00.424Z,78.24
2023-05-01T00:56:28.058Z,78.36
2023-05-01T00:58:56.823Z,78.40
2023-05-01T01:01:24.485Z,78.52
2023-05-01T01:03:54.803Z,78.50
2023-05-01T01:06:39.754Z,78.94
2023-05-01T01:09:19.100Z,79.39
2023-05-01T01:11:58.097Z,79.31
2023-05-01T01:14:33.125Z,79.48
2023-05-01T01:17:48.699Z,80.05
2023-05-01T01:20:38.033Z,80.12
2023-05-01T01:23:23.909Z,80.27
2023-05-01T01:26:13.197Z,80.96
2023-05-01T01:28:52.513Z,82.94
2023-05-01T01:31:36.369Z,83.04
2023-05-01T01:34:14.958Z,82.41
2023-05-01T01:37:10.987Z,82.51
2023-05-01T01:39:45.278Z,82.57
2023-05-01T01:42:18.698Z,82.72
2023-05-01T01:44:54.889Z,83.62
2023-05-01T01:47:28.439Z,84.07
2023-05-01T01:49:57.825Z,84.90
2023-05-01T01:52:27.840Z,85.38
2023-05-01T01:54:58.701Z,85.19
2023-05-01T01:57:27.359Z,86.07
2023-05-01T01:59:55.595Z,85.96
2023-05-01T02:02:23.887Z,86.57
2023-05-01T02:04:52.568Z,88.00
2023-05-01T02:07:21.865Z,88.13
2023-05-01T02:09:51.713Z,89.13
2023-05-01T02:12:19.877Z,89.62
2023-05-01T02:14:49.091Z,89.61
2023-05-01T02:17:17.801Z,90.38
2023-05-01T02:19:46.647Z,91.38
2023-05-01T02:22:15.109Z,92.38
2023-05-01T02:24:43.880Z,93.03
2023-05-01T02:27:17.378Z,92.48
2023-05-01T02:29:45.051Z,92.62
2023-05-01T02:32:12.473Z,92.85
2023-05-01T02:34:39.626Z,93.06
2023-05-01T02:37:08.194Z,93.31
2023-05-01T02:39:35.609Z,93.15
2023-05-01T02:42:04.552Z,93.20
2023-05-01T02:44:39.967Z,93.70
2023-05-01T02:47:09.284Z,94.06
2023-05-01T02:49:38.434Z,93.72
2023-05-01T02:52:05.658Z,93.51
2023-05-01T02:54:33.134Z,93.77
2023-05-01T02:57:03.602Z,93.79
2023-05-01T02:59:30.566Z,93.77
2023-05-01T03:01:58.183Z,94.08
2023-05-01T03:04:25.555Z,94.14
2023-05-01T03:06:52.595Z,94.38
2023-05-01T03:09:20.532Z,95.17
2023-05-01T03:11:47.944Z,96.62
2023-05-01T03:14:14.911Z,97.90
2023-05-01T03:16:41.992Z,98.19
2023-05-01T03:19:09.112Z,97.81
2023-05-01T03:21:37.129Z,97.85
2023-05-01T03:24:04.248Z,98.58
2023-05-01T03:26:33.033Z,99.40
2023-05-01T03:29:00.050Z,99.92
2023-05-01T03:31:27.699Z,100.00
2023-05-01T03:33:55.935Z,100.00
2023-05-01T03:36:23.250Z,100.00
2023-05-01T03:38:51.377Z,100.00
2023-05-01T03:41:47.211Z,100.00
2023-05-01T03:44:24.001Z,100.00
2023-05-01T03:46:51.258Z,100.00
2023-05-01T03:49:24.340Z,100.00
2023-05-01T03:51:52.439Z,100.00
2023-05-01T03:54:19.408Z,100.00
2023-05-01T03:57:02.460Z,99.84
2023-05-01T03:59:30.561Z,99.44
2023-05-01T04:01:58.502Z,99.90
2023-05-01T04:04:29.695Z,99.54
2023-05-01T04:06:58.988Z,100.00
2023-05-01T04:09:26.214Z,100.00
2023-05-01T04:11:53.475Z,100.00
2023-05-01T04:14:20.434Z,99.75
2023-05-01T04:16:47.892Z,98.88
2023-05-01T04:19:14.753Z,97.54
2023-05-01T04:21:45.030Z,97.08
2023-05-01T04:24:12.247Z,96.12
2023-05-01T04:26:39.378Z,94.76
2023-05-01T04:29:07.424Z,94.21
2023-05-01T04:31:53.239Z,92.83
2023-05-01T04:34:20.606Z,90.33
2023-05-01T04:36:47.616Z,90.43
2023-05-01T04:39:15.164Z,90.20
2023-05-01T04:41:42.336Z,89.50
2023-05-01T04:44:09.339Z,89.58
2023-05-01T04:46:36.262Z,89.16
2023-05-01T04:49:04.201Z,88.86
2023-05-01T04:51:31.154Z,88.57
2023-05-01T04:53:59.305Z,88.16
2023-05-01T04:56:27.776Z,88.10
2023-05-01T04:59:00.370Z,87.38
2023-05-01T05:01:28.767Z,86.77
2023-05-01T05:03:56.840Z,86.34
2023-05-01T05:06:24.219Z,85.91
2023-05-01T05:08:52.251Z,85.60
2023-05-01T05:11:20.198Z,85.16
2023-05-01T05:13:57.431Z,85.18
2023-05-01T05:16:25.115Z,84.58
2023-05-01T05:18:52.598Z,83.35
2023-05-01T05:21:19.571Z,82.90
2023-05-01T05:23:51.158Z,82.34
2023-05-01T05:26:18.629Z,82.14
2023-05-01T05:28:45.844Z,81.79
2023-05-01T05:31:13.041Z,82.39
2023-05-01T05:33:40.056Z,82.29
2023-05-01T05:36:07.528Z,81.06
2023-05-01T05:38:40.622Z,80.99
2023-05-01T05:41:09.849Z,81.24
2023-05-01T05:43:37.351Z,80.27
2023-05-01T05:46:05.515Z,79.41
2023-05-01T05:48:34.430Z,79.03
2023-05-01T05:51:01.626Z,78.05
2023-05-01T05:53:31.517Z,76.87
2023-05-01T05:55:58.828Z,76.39
2023-05-01T05:58:26.000Z,75.93
2023-05-01T06:00:54.758Z,75.91
2023-05-01T06:03:22.329Z,76.18
2023-05-01T06:05:51.928Z,75.69
2023-05-01T06:08:19.135Z,75.27
2023-05-01T06:10:47.553Z,74.93
2023-05-01T06:13:15.036Z,75.00
2023-05-01T06:15:46.150Z,74.15
2023-05-01T06:18:13.603Z,74.82
2023-05-01T06:20:41.053Z,74.98
2023-05-01T06:23:10.094Z,74.26
2023-05-01T06:25:51.736Z,73.69
2023-05-01T06:28:18.949Z,72.77
2023-05-01T06:30:46.479Z,73.21
2023-05-01T06:33:17.343Z,72.53
2023-05-01T06:35:46.680Z,72.11
2023-05-01T06:38:13.855Z,71.19
2023-05-01T06:40:41.705Z,71.88
2023-05-01T06:43:08.851Z,71.79
2023-05-01T06:45:35.919Z,71.99
2023-05-01T06:48:03.015Z,71.74
2023-05-01T06:50:30.029Z,70.12
2023-05-01T06:53:01.058Z,70.00
2023-05-01T06:55:32.089Z,70.59
2023-05-01T06:58:02.628Z,69.97
2023-05-01T07:00:33.711Z,69.83
2023-05-01T07:03:03.194Z,68.57
2023-05-01T07:05:30.536Z,66.40
2023-05-01T07:08:01.225Z,66.46
2023-05-01T07:10:30.282Z,66.17
2023-05-01T07:12:57.282Z,65.82
2023-05-01T07:15:25.038Z,65.01
2023-05-01T07:17:52.435Z,64.70
2023-05-01T07:20:19.592Z,65.04
2023-05-01T07:22:46.743Z,64.38
2023-05-01T07:25:14.324Z,64.83
2023-05-01T07:27:41.693Z,62.79
2023-05-01T07:30:09.797Z,62.79
2023-05-01T07:32:36.740Z,63.05
2023-05-01T07:35:04.499Z,62.45
2023-05-01T07:37:31.560Z,62.69
2023-05-01T07:39:58.758Z,60.71
2023-05-01T07:42:29.360Z,61.18
2023-05-01T07:44:56.538Z,61.19
2023-05-01T07:47:24.401Z,61.41
2023-05-01T07:49:51.490Z,62.01
2023-05-01T07:52:18.730Z,61.76
2023-05-01T07:54:51.187Z,61.26
2023-05-01T07:57:18.723Z,61.43
2023-05-01T07:59:45.905Z,60.80
2023-05-01T08:02:13.925Z,60.18
2023-05-01T08:04:41.797Z,59.60
2023-05-01T08:07:09.012Z,58.35
2023-05-01T08:09:36.032Z,58.07
2023-05-01T08:12:04.130Z,57.58
2023-05-01T08:14:31.897Z,57.62
2023-05-01T08:16:59.017Z,57.47
2023-05-01T08:19:30.198Z,57.89
2023-05-01T08:21:57.970Z,56.19
2023-05-01T08:24:26.205Z,57.06
2023-05-01T08:26:53.422Z,54.90
2023-05-01T08:29:20.300Z,55.70
2023-05-01T08:31:47.920Z,53.32
2023-05-01T08:34:15.214Z,52.51
2023-05-01T08:36:42.411Z,52.66
2023-05-01T08:39:09.326Z,54.68
2023-05-01T08:41:38.190Z,52.94
2023-05-01T08:44:09.249Z,53.78
2023-05-01T08:46:49.087Z,51.67
2023-05-01T08:49:17.751Z,49.71
2023-05-01T08:51:47.562Z,51.68
2023-05-01T08:54:16.646Z,51.40
2023-05-01T08:56:47.208Z,50.81
2023-05-01T08:59:14.989Z,50.21
2023-05-01T09:01:43.609Z,49.58
2023-05-01T09:04:12.137Z,49.93
2023-05-01T09:06:39.340Z,50.10
2023-05-01T09:09:06.634Z,49.57
2023-05-01T09:11:33.596Z,50.03
2023-05-01T09:14:01.738Z,47.90
2023-05-01T09:16:29.604Z,47.38
2023-05-01T09:18:58.050Z,46.85
2023-05-01T09:21:27.329Z,47.45
2023-05-01T09:23:54.382Z,46.69
2023-05-01T09:26:22.035Z,48.20
2023-05-01T09:28:49.341Z,47.35
2023-05-01T09:31:23.077Z,47.69
2023-05-01T09:33:58.563Z,46.55
2023-05-01T09:36:27.250Z,48.38
2023-05-01T09:38:54.663Z,48.07
2023-05-01T09:41:22.597Z,48.07
2023-05-01T09:43:51.813Z,48.33
2023-05-01T09:46:19.221Z,46.48
2023-05-01T09:48:56.559Z,45.89
2023-05-01T09:51:29.101Z,45.67
2023-05-01T09:54:01.931Z,45.17
2023-05-01T09:56:31.474Z,44.87
2023-05-01T09:59:15.488Z,43.68
2023-05-01T10:01:45.164Z,43.25
2023-05-01T10:04:13.248Z,44.99
2023-05-01T10:06:41.441Z,45.33
2023-05-01T10:09:16.663Z,44.19
2023-05-01T10:11:55.791Z,45.13
2023-05-01T10:14:28.386Z,45.09
2023-05-01T10:16:57.977Z,45.02
2023-05-01T10:19:25.739Z,43.29
2023-05-01T10:21:53.526Z,44.11
2023-05-01T10:24:21.008Z,45.18
2023-05-01T10:26:49.232Z,45.42
2023-05-01T10:29:17.495Z,42.64
2023-05-01T10:31:45.001Z,42.53
2023-05-01T10:34:18.206Z,44.10
2023-05-01T10:36:50.685Z,44.15
2023-05-01T10:39:32.455Z,42.53
2023-05-01T10:42:06.362Z,44.02
2023-05-01T10:44:35.101Z,43.86
2023-05-01T10:47:24.961Z,44.14
2023-05-01T10:50:07.216Z,43.88
2023-05-01T10:53:15.719Z,42.85
2023-05-01T10:55:45.165Z,42.64
2023-05-01T10:58:13.154Z,42.87
2023-05-01T11:00:41.651Z,43.45
2023-05-01T11:03:24.514Z,44.92
2023-05-01T11:06:00.939Z,44.39
2023-05-01T11:08:37.561Z,44.11
2023-05-01T11:11:19.886Z,44.30
2023-05-01T11:14:03.068Z,45.00
2023-05-01T11:16:39.524Z,44.92
2023-05-01T11:19:08.763Z,45.25
2023-05-01T11:21:38.835Z,44.21
2023-05-01T11:24:09.637Z,44.69
2023-05-01T11:26:42.215Z,45.22
2023-05-01T11:29:11.458Z,43.74
2023-05-01T11:31:39.588Z,42.72
2023-05-01T11:34:07.252Z,42.11
2023-05-01T11:36:51.237Z,41.84
2023-05-01T11:39:18.894Z,42.21
2023-05-01T11:41:46.600Z,42.90
2023-05-01T11:44:18.259Z,40.86
2023-05-01T11:46:45.410Z,40.97
2023-05-01T11:49:12.408Z,40.43
2023-05-01T11:51:40.847Z,39.16
2023-05-01T11:54:15.192Z,39.96
2023-05-01T11:56:43.220Z,40.65
2023-05-01T11:59:11.617Z,40.70
2023-05-01T12:01:41.310Z,41.12
2023-05-01T12:04:08.813Z,41.63
2023-05-01T12:06:45.150Z,40.76
2023-05-01T12:09:24.421Z,40.82
2023-05-01T12:11:53.478Z,39.96
2023-05-01T12:14:24.570Z,39.71
2023-05-01T12:16:51.845Z,39.46
2023-05-01T12:19:19.746Z,38.04
2023-05-01T12:21:48.047Z,38.79
2023-05-01T12:24:17.396Z,38.67
2023-05-01T12:26:46.573Z,38.99
2023-05-01T12:29:14.264Z,38.52
2023-05-01T12:31:48.813Z,39.05
2023-05-01T12:34:16.119Z,38.94
2023-05-01T12:36:53.945Z,38.87
2023-05-01T12:39:23.446Z,38.90
2023-05-01T12:41:51.346Z,39.05
2023-05-01T12:44:30.812Z,40.81
2023-05-01T12:47:02.803Z,41.79
2023-05-01T12:49:31.637Z,42.30
2023-05-01T12:52:03.626Z,40.71
2023-05-01T12:54:38.947Z,41.23
2023-05-01T12:57:14.888Z,41.38
2023-05-01T12:59:47.067Z,42.38
2023-05-01T13:02:17.169Z,42.93
2023-05-01T13:04:44.804Z,42.12
2023-05-01T13:07:14.986Z,41.61
2023-05-01T13:10:00.242Z,40.92
2023-05-01T13:12:29.615Z,39.13
2023-05-01T13:14:57.580Z,39.94
2023-05-01T13:17:31.719Z,41.22
2023-05-01T13:20:01.407Z,40.79
2023-05-01T13:22:38.221Z,41.19
2023-05-01T13:25:23.449Z,41.80
2023-05-01T13:27:52.398Z,42.10
2023-05-01T13:30:30.594Z,40.52
2023-05-01T13:32:58.298Z,40.66
2023-05-01T13:35:26.943Z,40.39
2023-05-01T13:37:54.829Z,41.28
2023-05-01T13:40:27.944Z,41.40
2023-05-01T13:42:55.124Z,41.44
2023-05-01T13:45:22.260Z,41.31
2023-05-01T13:47:50.819Z,40.99
2023-05-01T13:50:18.109Z,40.21
2023-05-01T13:52:45.987Z,40.55
2023-05-01T13:55:13.788Z,40.24
2023-05-01T13:57:42.392Z,40.26
2023-05-01T14:00:19.850Z,40.06
2023-05-01T14:02:49.411Z,40.67
2023-05-01T14:05:17.709Z,39.63
2023-05-01T14:07:55.320Z,39.89
2023-05-01T14:10:26.257Z,40.15
2023-05-01T14:13:01.258Z,40.90
2023-05-01T14:15:29.647Z,40.96
2023-05-01T14:17:58.978Z,42.25
2023-05-01T14:20:26.007Z,41.40
2023-05-01T14:22:53.643Z,41.43
2023-05-01T14:25:25.371Z,41.24
2023-05-01T14:27:54.987Z,41.67
2023-05-01T14:30:33.815Z,42.00
2023-05-01T14:33:02.989Z,41.53
2023-05-01T14:35:30.715Z,41.85
2023-05-01T14:38:11.715Z,41.89
2023-05-01T14:40:41.198Z,41.72
2023-05-01T14:43:09.143Z,41.20
2023-05-01T14:45:37.314Z,41.48
2023-05-01T14:48:04.515Z,40.96
2023-05-01T14:50:31.955Z,41.11
2023-05-01T14:53:01.184Z,41.34
2023-05-01T14:55:34.500Z,41.25
2023-05-01T14:58:02.052Z,41.78
2023-05-01T15:00:29.155Z,41.21
2023-05-01T15:02:58.633Z,41.24
2023-05-01T15:05:26.317Z,41.34
2023-05-01T15:08:02.469Z,40.64
2023-05-01T15:10:31.729Z,40.51
2023-05-01T15:12:58.865Z,40.37
2023-05-01T15:15:29.876Z,41.16
2023-05-01T15:17:57.286Z,40.09
2023-05-01T15:20:24.474Z,40.52
2023-05-01T15:22:51.553Z,40.38
2023-05-01T15:25:18.949Z,41.50
2023-05-01T15:27:48.585Z,40.96
2023-05-01T15:30:16.458Z,40.49
2023-05-01T15:32:43.767Z,40.12
2023-05-01T15:35:11.201Z,40.59
2023-05-01T15:37:38.094Z,40.67
2023-05-01T15:40:05.980Z,40.65
2023-05-01T15:42:33.186Z,39.40
2023-05-01T15:45:00.432Z,40.11
2023-05-01T15:47:28.356Z,40.08
2023-05-01T15:49:55.345Z,40.19
2023-05-01T15:52:22.404Z,40.02
2023-05-01T15:54:49.297Z,39.30
2023-05-01T15:57:19.237Z,38.08
2023-05-01T15:59:46.211Z,37.09
2023-05-01T16:02:13.322Z,35.33
2023-05-01T16:04:40.479Z,34.34
2023-05-01T16:07:08.974Z,33.26
2023-05-01T16:09:36.035Z,34.04
2023-05-01T16:12:04.777Z,33.80
2023-05-01T16:14:31.802Z,34.23
2023-05-01T16:16:58.832Z,33.40
2023-05-01T16:19:29.250Z,33.96
2023-05-01T16:21:56.392Z,33.55
2023-05-01T16:24:23.329Z,32.45
2023-05-01T16:26:50.481Z,35.10
2023-05-01T16:29:18.508Z,35.96
2023-05-01T16:31:48.644Z,36.25
2023-05-01T16:34:20.200Z,35.96
2023-05-01T16:36:47.536Z,36.91
2023-05-01T16:39:19.092Z,37.84
2023-05-01T16:41:48.925Z,38.28
2023-05-01T16:44:17.357Z,39.35
2023-05-01T16:46:54.560Z,40.11
2023-05-01T16:49:23.247Z,43.44
2023-05-01T16:51:50.368Z,43.36
2023-05-01T16:54:18.128Z,45.52
2023-05-01T16:56:45.167Z,45.09
2023-05-01T16:59:12.244Z,45.16
2023-05-01T17:01:39.304Z,46.36
2023-05-01T17:04:06.515Z,46.13
2023-05-01T17:06:33.670Z,46.63
2023-05-01T17:09:00.700Z,48.95
2023-05-01T17:11:28.259Z,47.17
2023-05-01T17:13:56.993Z,48.29
2023-05-01T17:16:23.952Z,48.88
2023-05-01T17:18:51.326Z,49.63
2023-05-01T17:21:18.748Z,50.05
2023-05-01T17:23:45.943Z,49.97
2023-05-01T17:26:15.903Z,49.75
2023-05-01T17:28:45.136Z,50.13
2023-05-01T17:31:12.150Z,51.05
2023-05-01T17:33:39.329Z,51.53
2023-05-01T17:36:06.323Z,51.97
2023-05-01T17:38:33.568Z,52.47
2023-05-01T17:41:00.435Z,53.27
2023-05-01T17:43:27.593Z,52.93
2023-05-01T17:45:54.664Z,53.80
2023-05-01T17:48:21.863Z,53.10
2023-05-01T17:50:49.118Z,53.69
2023-05-01T17:53:16.754Z,53.76
2023-05-01T17:55:44.251Z,53.83
2023-05-01T17:58:12.922Z,53.80
2023-05-01T18:00:40.600Z,54.07
2023-05-01T18:03:08.880Z,54.51
2023-05-01T18:05:36.175Z,54.43
2023-05-01T18:08:03.418Z,54.99
2023-05-01T18:10:31.419Z,54.85
2023-05-01T18:12:59.761Z,55.20
2023-05-01T18:15:27.681Z,55.65
2023-05-01T18:17:54.651Z,58.00
2023-05-01T18:20:21.780Z,56.83
2023-05-01T18:22:48.803Z,55.52
2023-05-01T18:25:17.169Z,55.43
2023-05-01T18:27:45.197Z,56.26
2023-05-01T18:30:12.609Z,56.06
2023-05-01T18:35:14.000Z,56.49
2023-05-01T18:37:42.484Z,56.93
2023-05-01T18:40:10.099Z,56.84
2023-05-01T18:42:37.108Z,56.91
2023-05-01T18:45:04.810Z,56.83
2023-05-01T18:47:32.708Z,57.41
2023-05-01T18:50:00.117Z,57.47
2023-05-01T18:52:29.193Z,58.23
2023-05-01T18:54:57.055Z,58.36
2023-05-01T18:57:24.231Z,58.51
2023-05-01T18:59:51.289Z,58.57
2023-05-01T19:02:18.708Z,58.74
2023-05-01T19:07:16.300Z,58.99
2023-05-01T19:09:43.569Z,59.62
2023-05-01T19:12:10.652Z,59.61
2023-05-01T19:14:37.851Z,59.37
2023-05-01T19:17:04.948Z,59.74
2023-05-01T19:19:32.156Z,60.21
2023-05-01T19:21:59.210Z,60.25
2023-05-01T19:24:26.454Z,60.97
2023-05-01T19:26:53.470Z,61.09
2023-05-01T19:29:20.577Z,61.53
2023-05-01T19:31:47.855Z,61.73
2023-05-01T19:34:15.031Z,61.90
2023-05-01T19:36:41.850Z,62.35
2023-05-01T19:39:08.936Z,62.59
2023-05-01T19:41:36.355Z,62.42
2023-05-01T19:44:03.549Z,62.81
2023-05-01T19:46:30.488Z,63.23
2023-05-01T19:48:57.556Z,63.81
2023-05-01T19:51:24.654Z,64.78
2023-05-01T19:53:51.528Z,65.11
2023-05-01T19:56:19.168Z,64.47
2023-05-01T19:58:46.522Z,64.71
2023-05-01T20:01:13.829Z,64.52
2023-05-01T20:03:41.159Z,64.44
2023-05-01T20:06:09.110Z,64.87
2023-05-01T20:08:35.934Z,65.01
2023-05-01T20:11:03.517Z,64.86
2023-05-01T20:13:30.451Z,65.39
2023-05-01T20:15:57.623Z,65.73
2023-05-01T20:18:24.824Z,65.53
2023-05-01T20:20:52.072Z,64.86
2023-05-01T20:23:20.313Z,64.93
2023-05-01T20:25:47.784Z,65.26
2023-05-01T20:28:15.070Z,66.34
2023-05-01T20:30:46.196Z,65.40
2023-05-01T20:33:13.953Z,65.65
2023-05-01T20:35:41.211Z,65.78
2023-05-01T20:38:08.252Z,66.38
2023-05-01T20:40:36.987Z,66.12
2023-05-01T20:43:04.157Z,66.32
2023-05-01T20:45:31.107Z,66.71
2023-05-01T20:47:58.987Z,67.04
2023-05-01T20:50:27.189Z,66.77
2023-05-01T20:52:55.292Z,67.43
2023-05-01T20:55:23.575Z,68.30
2023-05-01T20:57:50.920Z,67.95
2023-05-01T21:00:17.929Z,68.41
2023-05-01T21:02:45.216Z,68.38
2023-05-01T21:05:13.073Z,68.51
2023-05-01T21:07:40.784Z,68.37
2023-05-01T21:10:10.347Z,68.54
2023-05-01T21:12:38.679Z,68.34
2023-05-01T21:15:06.204Z,69.30
2023-05-01T21:17:35.664Z,68.79
2023-05-01T21:20:07.231Z,69.37
2023-05-01T21:22:34.535Z,69.38
2023-05-01T21:25:01.385Z,70.05
2023-05-01T21:27:31.073Z,70.28
2023-05-01T21:30:02.010Z,70.45
2023-05-01T21:32:33.882Z,70.91
2023-05-01T21:35:01.651Z,71.27
2023-05-01T21:37:33.365Z,71.79
2023-05-01T21:40:01.347Z,71.99
2023-05-01T21:42:35.662Z,72.13
2023-05-01T21:45:07.757Z,71.82
2023-05-01T21:47:39.731Z,72.25
2023-05-01T21:50:07.992Z,72.31
2023-05-01T21:52:35.513Z,72.14
2023-05-01T21:55:04.578Z,72.03
2023-05-01T21:57:32.079Z,71.74
2023-05-01T22:00:01.569Z,72.12
2023-05-01T22:02:38.582Z,72.32
2023-05-01T22:05:06.486Z,71.84
2023-05-01T22:07:34.100Z,71.68
2023-05-01T22:10:01.811Z,71.59
2023-05-01T22:12:31.167Z,71.73
2023-05-01T22:14:58.328Z,71.57
2023-05-01T22:17:26.294Z,71.35
2023-05-01T22:19:53.349Z,71.36
2023-05-01T22:22:20.522Z,71.49
2023-05-01T22:24:47.563Z,72.29
2023-05-01T22:27:16.082Z,72.01
2023-05-01T22:29:43.098Z,72.36
2023-05-01T22:32:09.987Z,72.79
2023-05-01T22:34:37.312Z,73.04
2023-05-01T22:37:04.161Z,73.19
2023-05-01T22:39:36.335Z,74.18
2023-05-01T22:42:04.017Z,74.12
2023-05-01T22:44:31.801Z,74.14
2023-05-01T22:47:01.767Z,74.18
2023-05-01T22:49:28.881Z,74.47
2023-05-01T22:51:56.222Z,74.67
2023-05-01T22:54:24.082Z,74.49
2023-05-01T22:56:51.743Z,74.00
2023-05-01T22:59:19.324Z,73.57
2023-05-01T23:01:46.909Z,73.53
2023-05-01T23:04:14.373Z,74.21
2023-05-01T23:06:41.713Z,73.98
2023-05-01T23:09:08.810Z,74.25
2023-05-01T23:11:35.817Z,73.97
2023-05-01T23:14:02.881Z,73.83
2023-05-01T23:16:36.606Z,73.60
2023-05-01T23:19:03.916Z,73.67
2023-05-01T23:21:31.236Z,74.08
2023-05-01T23:23:58.292Z,74.16
2023-05-01T23:26:28.731Z,74.80
2023-05-01T23:28:55.858Z,74.93
2023-05-01T23:31:27.791Z,75.01
2023-05-01T23:33:55.482Z,75.55
2023-05-01T23:36:22.546Z,75.20
2023-05-01T23:38:49.853Z,75.52
2023-05-01T23:41:16.826Z,75.34
2023-05-01T23:43:48.032Z,75.62
2023-05-01T23:46:16.172Z,75.96
2023-05-01T23:48:43.249Z,75.96
2023-05-01T23:51:10.689Z,76.21
2023-05-01T23:53:37.578Z,76.42
2023-05-01T23:56:04.759Z,76.46
2023-05-01T23:58:31.669Z,76.90
